sensor_id;sensor_type;location;lat;lon;timestamp;temperature;humidity
46676;DHT22;32412;51.478;5.694;2022-10-01T00:00:33;11.20;99.90
46676;DHT22;32412;51.478;5.694;2022-10-01T00:02:59;11.10;99.90
46676;DHT22;32412;51.478;5.694;2022-10-01T00:05:26;11.20;99.90
46676;DHT22;32412;51.478;5.694;2022-10-01T00:07:51;11.10;99.90
46676;DHT22;32412;51.478;5.694;2022-10-01T00:10:17;11.10;99.90
46676;DHT22;32412;51.478;5.694;2022-10-01T00:12:46;11.10;99.90
46676;DHT22;32412;51.478;5.694;2022-10-01T00:15:14;11.20;99.90
46676;DHT22;32412;51.478;5.694;2022-10-01T00:17:41;11.20;99.90
46676;DHT22;32412;51.478;5.694;2022-10-01T00:20:08;11.20;99.90
46676;DHT22;32412;51.478;5.694;2022-10-01T00:22:35;11.20;99.90
46676;DHT22;32412;51.478;5.694;2022-10-01T00:25:02;11.20;99.90
46676;DHT22;32412;51.478;5.694;2022-10-01T00:27:28;11.20;99.90
46676;DHT22;32412;51.478;5.694;2022-10-01T00:29:54;11.20;99.90
46676;DHT22;32412;51.478;5.694;2022-10-01T00:32:23;11.10;99.90
46676;DHT22;32412;51.478;5.694;2022-10-01T00:34:49;11.10;99.90
46676;DHT22;32412;51.478;5.694;2022-10-01T00:37:15;11.10;99.90
46676;DHT22;32412;51.478;5.694;2022-10-01T00:39:42;11.10;99.90
46676;DHT22;32412;51.478;5.694;2022-10-01T00:42:17;11.10;99.90
46676;DHT22;32412;51.478;5.694;2022-10-01T00:44:43;11.00;99.90
46676;DHT22;32412;51.478;5.694;2022-10-01T00:50:38;11.10;99.90
46676;DHT22;32412;51.478;5.694;2022-10-01T00:52:49;11.10;99.90
46676;DHT22;32412;51.478;5.694;2022-10-01T00:57:45;11.20;99.90
46676;DHT22;32412;51.478;5.694;2022-10-01T01:00:13;11.20;99.90
46676;DHT22;32412;51.478;5.694;2022-10-01T01:02:40;11.20;99.90
46676;DHT22;32412;51.478;5.694;2022-10-01T01:05:06;11.20;99.90
46676;DHT22;32412;51.478;5.694;2022-10-01T01:07:34;11.10;99.90
46676;DHT22;32412;51.478;5.694;2022-10-01T01:10:01;11.10;99.90
46676;DHT22;32412;51.478;5.694;2022-10-01T01:23:18;11.10;99.90
46676;DHT22;32412;51.478;5.694;2022-10-01T01:25:59;11.10;99.90
46676;DHT22;32412;51.478;5.694;2022-10-01T01:28:32;11.10;99.90
46676;DHT22;32412;51.478;5.694;2022-10-01T01:31:02;11.10;99.90
46676;DHT22;32412;51.478;5.694;2022-10-01T01:33:31;11.10;99.90
46676;DHT22;32412;51.478;5.694;2022-10-01T01:36:03;11.00;99.90
46676;DHT22;32412;51.478;5.694;2022-10-01T01:38:35;11.00;99.90
46676;DHT22;32412;51.478;5.694;2022-10-01T01:41:05;11.00;99.90
46676;DHT22;32412;51.478;5.694;2022-10-01T01:43:34;11.00;99.90
46676;DHT22;32412;51.478;5.694;2022-10-01T01:46:04;11.00;99.90
46676;DHT22;32412;51.478;5.694;2022-10-01T01:48:31;11.00;99.90
46676;DHT22;32412;51.478;5.694;2022-10-01T01:51:18;11.00;99.90
46676;DHT22;32412;51.478;5.694;2022-10-01T01:53:48;10.90;99.90
46676;DHT22;32412;51.478;5.694;2022-10-01T01:56:14;10.90;99.90
46676;DHT22;32412;51.478;5.694;2022-10-01T01:58:42;11.00;99.90
46676;DHT22;32412;51.478;5.694;2022-10-01T02:01:32;10.90;99.90
46676;DHT22;32412;51.478;5.694;2022-10-01T02:03:59;11.00;99.90
46676;DHT22;32412;51.478;5.694;2022-10-01T02:12:31;10.90;99.90
46676;DHT22;32412;51.478;5.694;2022-10-01T02:15:14;10.90;99.90
46676;DHT22;32412;51.478;5.694;2022-10-01T02:20:36;10.90;99.90
46676;DHT22;32412;51.478;5.694;2022-10-01T02:23:04;10.90;99.90
46676;DHT22;32412;51.478;5.694;2022-10-01T02:25:36;11.00;99.90
46676;DHT22;32412;51.478;5.694;2022-10-01T02:28:07;11.00;99.90
46676;DHT22;32412;51.478;5.694;2022-10-01T02:30:37;11.00;99.90
46676;DHT22;32412;51.478;5.694;2022-10-01T02:33:04;11.00;99.90
46676;DHT22;32412;51.478;5.694;2022-10-01T02:35:33;11.00;99.90
46676;DHT22;32412;51.478;5.694;2022-10-01T02:38:01;11.00;99.90
46676;DHT22;32412;51.478;5.694;2022-10-01T02:40:30;11.00;99.90
46676;DHT22;32412;51.478;5.694;2022-10-01T02:43:02;11.00;99.90
46676;DHT22;32412;51.478;5.694;2022-10-01T02:45:31;11.00;99.90
46676;DHT22;32412;51.478;5.694;2022-10-01T02:48:03;11.00;99.90
46676;DHT22;32412;51.478;5.694;2022-10-01T02:50:36;11.00;99.90
46676;DHT22;32412;51.478;5.694;2022-10-01T02:53:50;11.00;99.90
46676;DHT22;32412;51.478;5.694;2022-10-01T02:55:57;11.00;99.90
46676;DHT22;32412;51.478;5.694;2022-10-01T02:58:24;11.00;99.90
46676;DHT22;32412;51.478;5.694;2022-10-01T03:00:49;11.10;99.90
46676;DHT22;32412;51.478;5.694;2022-10-01T03:03:15;11.10;99.90
46676;DHT22;32412;51.478;5.694;2022-10-01T03:05:41;11.10;99.90
46676;DHT22;32412;51.478;5.694;2022-10-01T03:08:07;11.10;99.90
46676;DHT22;32412;51.478;5.694;2022-10-01T03:10:32;11.10;99.90
46676;DHT22;32412;51.478;5.694;2022-10-01T03:12:59;11.10;99.90
46676;DHT22;32412;51.478;5.694;2022-10-01T03:15:26;11.10;99.90
46676;DHT22;32412;51.478;5.694;2022-10-01T03:17:53;11.10;99.90
46676;DHT22;32412;51.478;5.694;2022-10-01T03:20:19;11.10;99.90
46676;DHT22;32412;51.478;5.694;2022-10-01T03:22:46;11.20;99.90
46676;DHT22;32412;51.478;5.694;2022-10-01T03:25:15;11.20;99.90
46676;DHT22;32412;51.478;5.694;2022-10-01T03:27:41;11.20;99.90
46676;DHT22;32412;51.478;5.694;2022-10-01T03:30:07;11.20;99.90
46676;DHT22;32412;51.478;5.694;2022-10-01T03:32:33;11.20;99.90
46676;DHT22;32412;51.478;5.694;2022-10-01T03:34:59;11.30;99.90
46676;DHT22;32412;51.478;5.694;2022-10-01T03:37:24;11.30;99.90
46676;DHT22;32412;51.478;5.694;2022-10-01T03:39:50;11.30;99.90
46676;DHT22;32412;51.478;5.694;2022-10-01T03:42:16;11.30;99.90
46676;DHT22;32412;51.478;5.694;2022-10-01T03:44:42;11.30;99.90
46676;DHT22;32412;51.478;5.694;2022-10-01T03:47:08;11.30;99.90
46676;DHT22;32412;51.478;5.694;2022-10-01T03:49:34;11.30;99.90
46676;DHT22;32412;51.478;5.694;2022-10-01T03:52:01;11.40;99.90
46676;DHT22;32412;51.478;5.694;2022-10-01T03:54:27;11.30;99.90
46676;DHT22;32412;51.478;5.694;2022-10-01T03:56:54;11.40;99.90
46676;DHT22;32412;51.478;5.694;2022-10-01T03:59:20;11.40;99.90
46676;DHT22;32412;51.478;5.694;2022-10-01T04:01:45;11.40;99.90
46676;DHT22;32412;51.478;5.694;2022-10-01T04:04:11;11.40;99.90
46676;DHT22;32412;51.478;5.694;2022-10-01T04:06:37;11.50;99.90
46676;DHT22;32412;51.478;5.694;2022-10-01T04:09:02;11.50;99.90
46676;DHT22;32412;51.478;5.694;2022-10-01T04:11:28;11.50;99.90
46676;DHT22;32412;51.478;5.694;2022-10-01T04:13:54;11.60;99.90
46676;DHT22;32412;51.478;5.694;2022-10-01T04:16:22;11.60;99.90
46676;DHT22;32412;51.478;5.694;2022-10-01T04:18:49;11.50;99.90
46676;DHT22;32412;51.478;5.694;2022-10-01T04:21:15;11.60;99.90
46676;DHT22;32412;51.478;5.694;2022-10-01T04:23:41;11.60;99.90
46676;DHT22;32412;51.478;5.694;2022-10-01T04:26:06;11.60;99.90
46676;DHT22;32412;51.478;5.694;2022-10-01T04:28:33;11.60;99.90
46676;DHT22;32412;51.478;5.694;2022-10-01T04:30:59;11.60;99.90
46676;DHT22;32412;51.478;5.694;2022-10-01T04:33:43;11.70;99.90
46676;DHT22;32412;51.478;5.694;2022-10-01T04:36:09;11.70;99.90
46676;DHT22;32412;51.478;5.694;2022-10-01T04:38:34;11.70;99.90
46676;DHT22;32412;51.478;5.694;2022-10-01T04:41:00;11.70;99.90
46676;DHT22;32412;51.478;5.694;2022-10-01T04:43:26;11.70;99.90
46676;DHT22;32412;51.478;5.694;2022-10-01T04:45:51;11.70;99.90
46676;DHT22;32412;51.478;5.694;2022-10-01T04:48:17;11.70;99.90
46676;DHT22;32412;51.478;5.694;2022-10-01T04:50:43;11.80;99.90
46676;DHT22;32412;51.478;5.694;2022-10-01T04:53:09;11.80;99.90
46676;DHT22;32412;51.478;5.694;2022-10-01T04:55:34;11.80;99.90
46676;DHT22;32412;51.478;5.694;2022-10-01T04:58:00;11.90;99.90
46676;DHT22;32412;51.478;5.694;2022-10-01T05:00:27;11.90;99.90
46676;DHT22;32412;51.478;5.694;2022-10-01T05:02:53;11.90;99.90
46676;DHT22;32412;51.478;5.694;2022-10-01T05:05:20;11.90;99.90
46676;DHT22;32412;51.478;5.694;2022-10-01T05:07:47;11.90;99.90
46676;DHT22;32412;51.478;5.694;2022-10-01T05:10:18;12.00;99.90
46676;DHT22;32412;51.478;5.694;2022-10-01T05:12:45;12.00;99.90
46676;DHT22;32412;51.478;5.694;2022-10-01T05:15:11;12.00;99.90
46676;DHT22;32412;51.478;5.694;2022-10-01T05:17:37;12.00;99.90
46676;DHT22;32412;51.478;5.694;2022-10-01T05:20:05;12.00;99.90
46676;DHT22;32412;51.478;5.694;2022-10-01T05:22:31;12.00;99.90
46676;DHT22;32412;51.478;5.694;2022-10-01T05:24:57;12.00;99.90
46676;DHT22;32412;51.478;5.694;2022-10-01T05:27:26;12.10;99.90
46676;DHT22;32412;51.478;5.694;2022-10-01T05:29:52;12.10;99.90
46676;DHT22;32412;51.478;5.694;2022-10-01T05:32:18;12.10;99.90
46676;DHT22;32412;51.478;5.694;2022-10-01T05:34:44;12.10;99.90
46676;DHT22;32412;51.478;5.694;2022-10-01T05:37:09;12.10;99.90
46676;DHT22;32412;51.478;5.694;2022-10-01T05:39:36;12.10;99.90
46676;DHT22;32412;51.478;5.694;2022-10-01T05:42:02;12.10;99.90
46676;DHT22;32412;51.478;5.694;2022-10-01T05:44:28;12.10;99.90
46676;DHT22;32412;51.478;5.694;2022-10-01T05:46:57;12.10;99.90
46676;DHT22;32412;51.478;5.694;2022-10-01T05:49:23;12.10;99.90
46676;DHT22;32412;51.478;5.694;2022-10-01T05:51:49;12.10;99.90
46676;DHT22;32412;51.478;5.694;2022-10-01T05:54:15;12.20;99.90
46676;DHT22;32412;51.478;5.694;2022-10-01T05:56:43;12.20;99.90
46676;DHT22;32412;51.478;5.694;2022-10-01T05:59:09;12.20;99.90
46676;DHT22;32412;51.478;5.694;2022-10-01T06:01:36;12.20;99.90
46676;DHT22;32412;51.478;5.694;2022-10-01T06:04:02;12.20;99.90
46676;DHT22;32412;51.478;5.694;2022-10-01T06:06:28;12.20;99.90
46676;DHT22;32412;51.478;5.694;2022-10-01T06:08:53;12.30;99.90
46676;DHT22;32412;51.478;5.694;2022-10-01T06:11:19;12.30;99.90
46676;DHT22;32412;51.478;5.694;2022-10-01T06:13:48;12.30;99.90
46676;DHT22;32412;51.478;5.694;2022-10-01T06:16:15;12.30;99.90
46676;DHT22;32412;51.478;5.694;2022-10-01T06:18:41;12.30;99.90
46676;DHT22;32412;51.478;5.694;2022-10-01T06:21:08;12.30;99.90
46676;DHT22;32412;51.478;5.694;2022-10-01T06:23:35;12.30;99.90
46676;DHT22;32412;51.478;5.694;2022-10-01T06:26:02;12.40;99.90
46676;DHT22;32412;51.478;5.694;2022-10-01T06:28:30;12.40;99.90
46676;DHT22;32412;51.478;5.694;2022-10-01T06:30:56;12.40;99.90
46676;DHT22;32412;51.478;5.694;2022-10-01T06:33:22;12.50;99.90
46676;DHT22;32412;51.478;5.694;2022-10-01T06:35:51;12.50;99.90
46676;DHT22;32412;51.478;5.694;2022-10-01T06:38:18;12.50;99.90
46676;DHT22;32412;51.478;5.694;2022-10-01T06:40:51;12.60;99.90
46676;DHT22;32412;51.478;5.694;2022-10-01T06:43:16;12.60;99.90
46676;DHT22;32412;51.478;5.694;2022-10-01T06:45:42;12.70;99.90
46676;DHT22;32412;51.478;5.694;2022-10-01T06:48:11;12.70;99.90
46676;DHT22;32412;51.478;5.694;2022-10-01T06:50:39;12.80;99.90
46676;DHT22;32412;51.478;5.694;2022-10-01T06:53:05;12.80;99.90
46676;DHT22;32412;51.478;5.694;2022-10-01T06:55:33;12.90;99.90
46676;DHT22;32412;51.478;5.694;2022-10-01T06:58:04;13.00;99.90
46676;DHT22;32412;51.478;5.694;2022-10-01T07:00:33;13.00;99.90
46676;DHT22;32412;51.478;5.694;2022-10-01T07:03:00;13.00;99.90
46676;DHT22;32412;51.478;5.694;2022-10-01T07:05:26;13.10;99.90
46676;DHT22;32412;51.478;5.694;2022-10-01T07:07:52;13.10;99.90
46676;DHT22;32412;51.478;5.694;2022-10-01T07:10:19;13.10;99.90
46676;DHT22;32412;51.478;5.694;2022-10-01T07:12:46;13.30;99.90
46676;DHT22;32412;51.478;5.694;2022-10-01T07:15:14;13.30;99.90
46676;DHT22;32412;51.478;5.694;2022-10-01T07:17:44;13.40;99.90
46676;DHT22;32412;51.478;5.694;2022-10-01T07:20:11;13.50;99.90
46676;DHT22;32412;51.478;5.694;2022-10-01T07:22:37;13.50;99.90
46676;DHT22;32412;51.478;5.694;2022-10-01T07:25:03;13.50;99.90
46676;DHT22;32412;51.478;5.694;2022-10-01T07:27:29;13.60;99.90
46676;DHT22;32412;51.478;5.694;2022-10-01T07:29:55;13.70;99.90
46676;DHT22;32412;51.478;5.694;2022-10-01T07:32:24;13.80;99.90
46676;DHT22;32412;51.478;5.694;2022-10-01T07:34:49;13.90;99.90
46676;DHT22;32412;51.478;5.694;2022-10-01T07:37:15;14.00;99.90
46676;DHT22;32412;51.478;5.694;2022-10-01T07:39:41;14.20;99.90
46676;DHT22;32412;51.478;5.694;2022-10-01T07:42:06;14.30;99.90
46676;DHT22;32412;51.478;5.694;2022-10-01T07:44:32;14.40;99.90
46676;DHT22;32412;51.478;5.694;2022-10-01T07:46:58;14.50;99.90
46676;DHT22;32412;51.478;5.694;2022-10-01T07:49:24;14.40;99.90
46676;DHT22;32412;51.478;5.694;2022-10-01T07:51:51;14.40;99.90
46676;DHT22;32412;51.478;5.694;2022-10-01T07:54:17;14.30;99.90
46676;DHT22;32412;51.478;5.694;2022-10-01T07:56:44;14.20;99.90
46676;DHT22;32412;51.478;5.694;2022-10-01T07:59:10;14.10;99.90
46676;DHT22;32412;51.478;5.694;2022-10-01T08:01:36;14.10;99.90
46676;DHT22;32412;51.478;5.694;2022-10-01T08:04:03;14.00;99.90
46676;DHT22;32412;51.478;5.694;2022-10-01T08:06:49;14.00;99.90
46676;DHT22;32412;51.478;5.694;2022-10-01T08:09:16;14.00;99.90
46676;DHT22;32412;51.478;5.694;2022-10-01T08:11:42;13.90;99.90
46676;DHT22;32412;51.478;5.694;2022-10-01T08:14:07;14.00;99.90
46676;DHT22;32412;51.478;5.694;2022-10-01T08:16:33;13.90;99.90
46676;DHT22;32412;51.478;5.694;2022-10-01T08:18:59;13.90;99.90
46676;DHT22;32412;51.478;5.694;2022-10-01T08:21:27;14.00;99.90
46676;DHT22;32412;51.478;5.694;2022-10-01T08:23:53;14.00;99.90
46676;DHT22;32412;51.478;5.694;2022-10-01T08:26:18;13.90;99.90
46676;DHT22;32412;51.478;5.694;2022-10-01T08:28:44;13.90;99.90
46676;DHT22;32412;51.478;5.694;2022-10-01T08:31:10;13.90;99.90
46676;DHT22;32412;51.478;5.694;2022-10-01T08:33:36;14.00;99.90
46676;DHT22;32412;51.478;5.694;2022-10-01T08:36:04;14.00;99.90
46676;DHT22;32412;51.478;5.694;2022-10-01T08:38:33;14.10;99.90
46676;DHT22;32412;51.478;5.694;2022-10-01T08:41:06;14.10;99.90
46676;DHT22;32412;51.478;5.694;2022-10-01T08:43:38;14.20;99.90
46676;DHT22;32412;51.478;5.694;2022-10-01T08:46:11;14.30;99.90
46676;DHT22;32412;51.478;5.694;2022-10-01T08:51:49;14.40;99.90
46676;DHT22;32412;51.478;5.694;2022-10-01T08:54:32;14.70;99.90
46676;DHT22;32412;51.478;5.694;2022-10-01T08:57:01;14.90;99.90
46676;DHT22;32412;51.478;5.694;2022-10-01T08:59:46;15.00;99.90
46676;DHT22;32412;51.478;5.694;2022-10-01T09:02:31;15.00;99.90
46676;DHT22;32412;51.478;5.694;2022-10-01T09:05:03;15.30;99.90
46676;DHT22;32412;51.478;5.694;2022-10-01T09:07:50;15.30;99.90
46676;DHT22;32412;51.478;5.694;2022-10-01T09:24:21;15.20;99.90
46676;DHT22;32412;51.478;5.694;2022-10-01T09:26:49;15.40;99.90
46676;DHT22;32412;51.478;5.694;2022-10-01T09:29:32;15.50;99.90
46676;DHT22;32412;51.478;5.694;2022-10-01T09:32:02;15.90;99.90
46676;DHT22;32412;51.478;5.694;2022-10-01T09:34:36;16.30;99.90
46676;DHT22;32412;51.478;5.694;2022-10-01T09:39:41;17.00;99.90
46676;DHT22;32412;51.478;5.694;2022-10-01T09:42:09;16.90;99.90
46676;DHT22;32412;51.478;5.694;2022-10-01T09:44:35;16.80;99.90
46676;DHT22;32412;51.478;5.694;2022-10-01T09:47:01;17.20;99.90
46676;DHT22;32412;51.478;5.694;2022-10-01T09:49:32;17.70;99.90
46676;DHT22;32412;51.478;5.694;2022-10-01T09:52:19;18.40;99.90
46676;DHT22;32412;51.478;5.694;2022-10-01T09:55:05;19.20;99.90
46676;DHT22;32412;51.478;5.694;2022-10-01T09:57:45;19.30;99.90
46676;DHT22;32412;51.478;5.694;2022-10-01T10:00:18;19.70;99.90
46676;DHT22;32412;51.478;5.694;2022-10-01T10:02:46;19.90;99.90
46676;DHT22;32412;51.478;5.694;2022-10-01T10:05:14;19.80;99.90
46676;DHT22;32412;51.478;5.694;2022-10-01T10:08:04;19.30;99.90
46676;DHT22;32412;51.478;5.694;2022-10-01T10:10:37;18.70;99.90
46676;DHT22;32412;51.478;5.694;2022-10-01T10:15:49;17.50;99.90
46676;DHT22;32412;51.478;5.694;2022-10-01T10:18:16;16.90;99.90
46676;DHT22;32412;51.478;5.694;2022-10-01T10:20:50;16.60;99.90
46676;DHT22;32412;51.478;5.694;2022-10-01T10:23:22;16.60;99.90
46676;DHT22;32412;51.478;5.694;2022-10-01T10:26:05;16.70;99.90
46676;DHT22;32412;51.478;5.694;2022-10-01T10:28:42;16.60;99.90
46676;DHT22;32412;51.478;5.694;2022-10-01T10:31:18;16.40;99.90
46676;DHT22;32412;51.478;5.694;2022-10-01T10:36:38;16.00;99.90
46676;DHT22;32412;51.478;5.694;2022-10-01T10:39:05;15.60;99.90
46676;DHT22;32412;51.478;5.694;2022-10-01T10:41:43;15.70;99.90
46676;DHT22;32412;51.478;5.694;2022-10-01T10:44:13;16.10;99.90
46676;DHT22;32412;51.478;5.694;2022-10-01T10:46:41;17.30;99.90
46676;DHT22;32412;51.478;5.694;2022-10-01T10:51:49;20.00;99.90
46676;DHT22;32412;51.478;5.694;2022-10-01T10:54:46;21.00;99.90
46676;DHT22;32412;51.478;5.694;2022-10-01T10:57:33;22.00;99.90
46676;DHT22;32412;51.478;5.694;2022-10-01T11:00:03;22.00;99.90
46676;DHT22;32412;51.478;5.694;2022-10-01T11:02:32;21.70;99.90
46676;DHT22;32412;51.478;5.694;2022-10-01T11:05:03;21.60;99.90
46676;DHT22;32412;51.478;5.694;2022-10-01T11:07:36;21.90;99.90
46676;DHT22;32412;51.478;5.694;2022-10-01T11:12:57;22.30;99.90
46676;DHT22;32412;51.478;5.694;2022-10-01T11:15:44;22.30;99.90
46676;DHT22;32412;51.478;5.694;2022-10-01T11:18:28;22.70;99.90
46676;DHT22;32412;51.478;5.694;2022-10-01T11:26:36;19.40;99.90
46676;DHT22;32412;51.478;5.694;2022-10-01T11:31:51;20.70;99.90
46676;DHT22;32412;51.478;5.694;2022-10-01T11:39:53;23.10;99.90
46676;DHT22;32412;51.478;5.694;2022-10-01T11:42:26;23.60;99.90
46676;DHT22;32412;51.478;5.694;2022-10-01T11:45:08;23.60;99.90
46676;DHT22;32412;51.478;5.694;2022-10-01T11:47:59;23.50;99.90
46676;DHT22;32412;51.478;5.694;2022-10-01T11:50:28;23.90;99.90
46676;DHT22;32412;51.478;5.694;2022-10-01T11:56:05;22.00;99.90
46676;DHT22;32412;51.478;5.694;2022-10-01T11:59:26;21.90;99.90
46676;DHT22;32412;51.478;5.694;2022-10-01T12:05:10;23.50;99.90
46676;DHT22;32412;51.478;5.694;2022-10-01T12:07:50;24.20;99.90
46676;DHT22;32412;51.478;5.694;2022-10-01T12:13:33;24.30;99.90
46676;DHT22;32412;51.478;5.694;2022-10-01T12:16:08;23.80;99.90
46676;DHT22;32412;51.478;5.694;2022-10-01T12:21:46;21.60;99.90
46676;DHT22;32412;51.478;5.694;2022-10-01T12:24:17;20.50;99.90
46676;DHT22;32412;51.478;5.694;2022-10-01T12:38:06;19.50;99.90
46676;DHT22;32412;51.478;5.694;2022-10-01T12:52:00;18.40;99.90
46676;DHT22;32412;51.478;5.694;2022-10-01T12:54:44;18.60;99.90
46676;DHT22;32412;51.478;5.694;2022-10-01T13:02:52;20.10;99.90
46676;DHT22;32412;51.478;5.694;2022-10-01T13:10:57;18.80;99.90
46676;DHT22;32412;51.478;5.694;2022-10-01T13:13:28;18.30;99.90
46676;DHT22;32412;51.478;5.694;2022-10-01T13:23:35;17.30;99.90
46676;DHT22;32412;51.478;5.694;2022-10-01T13:26:13;17.50;99.90
46676;DHT22;32412;51.478;5.694;2022-10-01T13:29:07;17.70;99.90
46676;DHT22;32412;51.478;5.694;2022-10-01T13:31:58;17.90;99.90
46676;DHT22;32412;51.478;5.694;2022-10-01T13:37:17;18.30;99.90
46676;DHT22;32412;51.478;5.694;2022-10-01T13:39:44;18.50;99.90
46676;DHT22;32412;51.478;5.694;2022-10-01T13:42:25;18.50;99.90
46676;DHT22;32412;51.478;5.694;2022-10-01T13:44:54;18.50;99.90
46676;DHT22;32412;51.478;5.694;2022-10-01T13:47:22;18.40;99.90
46676;DHT22;32412;51.478;5.694;2022-10-01T13:49:57;18.30;99.90
46676;DHT22;32412;51.478;5.694;2022-10-01T13:52:24;18.30;99.90
46676;DHT22;32412;51.478;5.694;2022-10-01T13:54:54;18.40;99.90
46676;DHT22;32412;51.478;5.694;2022-10-01T13:57:31;18.30;99.90
46676;DHT22;32412;51.478;5.694;2022-10-01T14:02:41;18.60;99.90
46676;DHT22;32412;51.478;5.694;2022-10-01T14:07:43;19.10;99.90
46676;DHT22;32412;51.478;5.694;2022-10-01T14:10:13;19.40;99.90
46676;DHT22;32412;51.478;5.694;2022-10-01T14:12:41;20.70;99.90
46676;DHT22;32412;51.478;5.694;2022-10-01T14:15:38;21.60;99.90
46676;DHT22;32412;51.478;5.694;2022-10-01T14:18:35;21.70;99.90
46676;DHT22;32412;51.478;5.694;2022-10-01T14:24:10;20.20;99.90
46676;DHT22;32412;51.478;5.694;2022-10-01T14:37:30;19.10;99.90
46676;DHT22;32412;51.478;5.694;2022-10-01T14:40:13;19.00;99.90
46676;DHT22;32412;51.478;5.694;2022-10-01T14:42:39;19.00;99.90
46676;DHT22;32412;51.478;5.694;2022-10-01T14:45:16;18.70;99.90
46676;DHT22;32412;51.478;5.694;2022-10-01T14:47:42;18.30;99.90
46676;DHT22;32412;51.478;5.694;2022-10-01T14:50:15;17.90;99.90
46676;DHT22;32412;51.478;5.694;2022-10-01T14:52:47;17.70;99.90
46676;DHT22;32412;51.478;5.694;2022-10-01T14:55:18;17.50;99.90
46676;DHT22;32412;51.478;5.694;2022-10-01T14:57:48;17.40;99.90
46676;DHT22;32412;51.478;5.694;2022-10-01T15:00:23;17.30;99.90
46676;DHT22;32412;51.478;5.694;2022-10-01T15:03:11;17.20;99.90
46676;DHT22;32412;51.478;5.694;2022-10-01T15:05:40;17.20;99.90
46676;DHT22;32412;51.478;5.694;2022-10-01T15:08:22;17.30;99.90
46676;DHT22;32412;51.478;5.694;2022-10-01T15:10:56;17.20;99.90
46676;DHT22;32412;51.478;5.694;2022-10-01T15:13:28;17.10;99.90
46676;DHT22;32412;51.478;5.694;2022-10-01T15:15:56;17.10;99.90
46676;DHT22;32412;51.478;5.694;2022-10-01T15:18:22;17.10;99.90
46676;DHT22;32412;51.478;5.694;2022-10-01T15:21:00;17.20;99.90
46676;DHT22;32412;51.478;5.694;2022-10-01T15:23:31;17.20;99.90
46676;DHT22;32412;51.478;5.694;2022-10-01T15:25:59;17.20;99.90
46676;DHT22;32412;51.478;5.694;2022-10-01T15:28:31;17.10;99.90
46676;DHT22;32412;51.478;5.694;2022-10-01T15:31:01;17.10;99.90
46676;DHT22;32412;51.478;5.694;2022-10-01T15:33:30;17.20;99.90
46676;DHT22;32412;51.478;5.694;2022-10-01T15:36:01;17.20;99.90
46676;DHT22;32412;51.478;5.694;2022-10-01T15:38:28;17.20;99.90
46676;DHT22;32412;51.478;5.694;2022-10-01T15:41:03;17.20;99.90
46676;DHT22;32412;51.478;5.694;2022-10-01T15:43:36;17.10;99.90
46676;DHT22;32412;51.478;5.694;2022-10-01T15:48:34;17.20;99.90
46676;DHT22;32412;51.478;5.694;2022-10-01T15:51:06;17.30;99.90
46676;DHT22;32412;51.478;5.694;2022-10-01T15:53:36;17.30;99.90
46676;DHT22;32412;51.478;5.694;2022-10-01T15:56:08;17.00;99.90
46676;DHT22;32412;51.478;5.694;2022-10-01T15:58:36;17.00;99.90
46676;DHT22;32412;51.478;5.694;2022-10-01T16:01:39;16.90;99.90
46676;DHT22;32412;51.478;5.694;2022-10-01T16:04:06;16.90;99.90
46676;DHT22;32412;51.478;5.694;2022-10-01T16:06:44;17.00;99.90
46676;DHT22;32412;51.478;5.694;2022-10-01T16:09:23;16.90;99.90
46676;DHT22;32412;51.478;5.694;2022-10-01T16:14:40;16.80;99.90
46676;DHT22;32412;51.478;5.694;2022-10-01T16:19:44;16.60;99.90
46676;DHT22;32412;51.478;5.694;2022-10-01T16:22:20;16.80;99.90
46676;DHT22;32412;51.478;5.694;2022-10-01T16:27:20;16.90;99.90
46676;DHT22;32412;51.478;5.694;2022-10-01T16:30:10;16.80;99.90
46676;DHT22;32412;51.478;5.694;2022-10-01T16:32:36;16.60;99.90
46676;DHT22;32412;51.478;5.694;2022-10-01T16:37:47;16.30;99.90
46676;DHT22;32412;51.478;5.694;2022-10-01T16:40:15;16.20;99.90
46676;DHT22;32412;51.478;5.694;2022-10-01T16:42:41;16.10;99.90
46676;DHT22;32412;51.478;5.694;2022-10-01T16:45:16;16.00;99.90
46676;DHT22;32412;51.478;5.694;2022-10-01T16:47:43;15.90;99.90
46676;DHT22;32412;51.478;5.694;2022-10-01T16:50:12;15.90;99.90
46676;DHT22;32412;51.478;5.694;2022-10-01T16:52:38;15.80;99.90
46676;DHT22;32412;51.478;5.694;2022-10-01T16:55:27;15.70;99.90
46676;DHT22;32412;51.478;5.694;2022-10-01T16:57:54;15.60;99.90
46676;DHT22;32412;51.478;5.694;2022-10-01T17:00:22;15.50;99.90
46676;DHT22;32412;51.478;5.694;2022-10-01T17:02:48;15.50;99.90
46676;DHT22;32412;51.478;5.694;2022-10-01T17:05:32;15.40;99.90
46676;DHT22;32412;51.478;5.694;2022-10-01T17:07:58;15.40;99.90
46676;DHT22;32412;51.478;5.694;2022-10-01T17:10:27;15.30;99.90
46676;DHT22;32412;51.478;5.694;2022-10-01T17:12:55;15.20;99.90
46676;DHT22;32412;51.478;5.694;2022-10-01T17:15:26;15.20;99.90
46676;DHT22;32412;51.478;5.694;2022-10-01T17:17:53;15.20;99.90
46676;DHT22;32412;51.478;5.694;2022-10-01T17:20:19;15.10;99.90
46676;DHT22;32412;51.478;5.694;2022-10-01T17:22:46;15.10;99.90
46676;DHT22;32412;51.478;5.694;2022-10-01T17:27:42;15.00;99.90
46676;DHT22;32412;51.478;5.694;2022-10-01T17:30:08;14.90;99.90
46676;DHT22;32412;51.478;5.694;2022-10-01T17:32:34;14.90;99.90
46676;DHT22;32412;51.478;5.694;2022-10-01T17:35:02;14.80;99.90
46676;DHT22;32412;51.478;5.694;2022-10-01T17:37:28;14.80;99.90
46676;DHT22;32412;51.478;5.694;2022-10-01T17:39:53;14.70;99.90
46676;DHT22;32412;51.478;5.694;2022-10-01T17:42:19;14.70;99.90
46676;DHT22;32412;51.478;5.694;2022-10-01T17:44:44;14.70;99.90
46676;DHT22;32412;51.478;5.694;2022-10-01T17:47:10;14.70;99.90
46676;DHT22;32412;51.478;5.694;2022-10-01T17:49:36;14.60;99.90
46676;DHT22;32412;51.478;5.694;2022-10-01T17:52:02;14.60;99.90
46676;DHT22;32412;51.478;5.694;2022-10-01T17:54:29;14.50;99.90
46676;DHT22;32412;51.478;5.694;2022-10-01T17:56:54;14.50;99.90
46676;DHT22;32412;51.478;5.694;2022-10-01T17:59:20;14.50;99.90
46676;DHT22;32412;51.478;5.694;2022-10-01T18:01:46;14.40;99.90
46676;DHT22;32412;51.478;5.694;2022-10-01T18:04:12;14.20;99.90
46676;DHT22;32412;51.478;5.694;2022-10-01T18:06:38;14.10;99.90
46676;DHT22;32412;51.478;5.694;2022-10-01T18:09:04;14.00;99.90
46676;DHT22;32412;51.478;5.694;2022-10-01T18:11:30;13.90;99.90
46676;DHT22;32412;51.478;5.694;2022-10-01T18:13:56;13.90;99.90
46676;DHT22;32412;51.478;5.694;2022-10-01T18:16:22;13.80;99.90
46676;DHT22;32412;51.478;5.694;2022-10-01T18:18:56;13.70;99.90
46676;DHT22;32412;51.478;5.694;2022-10-01T18:21:22;13.70;99.90
46676;DHT22;32412;51.478;5.694;2022-10-01T18:23:47;13.60;99.90
46676;DHT22;32412;51.478;5.694;2022-10-01T18:26:13;13.50;99.90
46676;DHT22;32412;51.478;5.694;2022-10-01T18:28:40;13.50;99.90